createdAt,value
2022-10-17T00:01:09.392Z,62.42
2022-10-17T00:03:38.540Z,62.35
2022-10-17T00:06:09.389Z,62.34
2022-10-17T00:08:38.678Z,62.46
2022-10-17T00:11:09.353Z,62.40
2022-10-17T00:13:37.718Z,62.50
2022-10-17T00:16:06.700Z,62.49
2022-10-17T00:18:35.018Z,62.18
2022-10-17T00:21:03.452Z,62.40
2022-10-17T00:23:34.459Z,62.44
2022-10-17T00:26:04.983Z,62.51
2022-10-17T00:28:33.911Z,62.44
2022-10-17T00:31:04.574Z,62.11
2022-10-17T00:33:34.064Z,62.25
2022-10-17T00:36:07.106Z,62.27
2022-10-17T00:38:38.239Z,62.50
2022-10-17T00:41:07.146Z,62.24
2022-10-17T00:43:51.090Z,62.29
2022-10-17T00:46:19.918Z,62.36
2022-10-17T00:48:49.748Z,62.32
2022-10-17T00:51:19.629Z,62.17
2022-10-17T00:53:49.720Z,62.06
2022-10-17T00:56:19.879Z,62.21
2022-10-17T00:58:48.728Z,62.43
2022-10-17T01:01:17.080Z,62.26
2022-10-17T01:03:45.540Z,62.27
2022-10-17T01:06:13.982Z,62.25
2022-10-17T01:08:42.426Z,62.32
2022-10-17T01:11:21.771Z,62.05
2022-10-17T01:13:53.301Z,62.16
2022-10-17T01:16:31.126Z,62.39
2022-10-17T01:19:04.308Z,62.07
2022-10-17T01:21:38.770Z,62.08
2022-10-17T01:24:48.666Z,62.51
2022-10-17T01:27:34.853Z,62.36
2022-10-17T01:30:23.000Z,62.51
2022-10-17T01:32:56.563Z,62.03
2022-10-17T01:35:28.484Z,62.18
2022-10-17T01:38:02.610Z,62.28
2022-10-17T01:40:35.193Z,62.11
2022-10-17T01:43:06.679Z,62.07
2022-10-17T01:45:39.570Z,61.84
2022-10-17T01:48:14.132Z,61.98
2022-10-17T01:50:46.132Z,62.23
2022-10-17T01:53:17.885Z,62.02
2022-10-17T01:55:47.644Z,62.07
2022-10-17T01:58:20.053Z,62.23
2022-10-17T02:00:49.047Z,62.19
2022-10-17T02:03:20.570Z,61.79
2022-10-17T02:05:49.342Z,62.12
2022-10-17T02:08:26.829Z,62.09
2022-10-17T02:10:58.838Z,62.02
2022-10-17T02:13:35.181Z,62.02
2022-10-17T02:16:12.782Z,62.18
2022-10-17T02:18:49.008Z,61.97
2022-10-17T02:21:21.609Z,61.88
2022-10-17T02:23:54.081Z,61.87
2022-10-17T02:26:27.223Z,61.96
2022-10-17T02:29:02.161Z,61.81
2022-10-17T02:31:32.696Z,61.98
2022-10-17T02:34:03.908Z,62.14
2022-10-17T02:36:37.915Z,62.13
2022-10-17T02:39:07.961Z,62.05
2022-10-17T02:41:37.852Z,62.27
2022-10-17T02:44:08.054Z,62.07
2022-10-17T02:46:36.903Z,61.94
2022-10-17T02:49:11.585Z,62.16
2022-10-17T02:51:44.505Z,61.69
2022-10-17T02:54:19.427Z,61.81
2022-10-17T02:56:52.367Z,62.04
2022-10-17T02:59:22.939Z,61.74
2022-10-17T03:01:52.277Z,61.86
2022-10-17T03:04:21.768Z,61.80
2022-10-17T03:06:50.256Z,62.12
2022-10-17T03:09:19.930Z,61.99
2022-10-17T03:11:48.163Z,61.74
2022-10-17T03:14:16.551Z,61.90
2022-10-17T03:16:44.857Z,61.99
2022-10-17T03:19:13.332Z,61.82
2022-10-17T03:21:42.951Z,61.61
2022-10-17T03:24:11.529Z,61.84
2022-10-17T03:26:40.477Z,61.93
2022-10-17T03:29:09.466Z,61.86
2022-10-17T03:31:37.795Z,61.87
2022-10-17T03:34:07.864Z,62.05
2022-10-17T03:36:36.189Z,61.88
2022-10-17T03:39:06.627Z,62.05
2022-10-17T03:41:35.417Z,61.66
2022-10-17T03:44:03.838Z,61.51
2022-10-17T03:46:32.927Z,61.55
2022-10-17T03:49:02.341Z,61.68
2022-10-17T03:51:31.090Z,61.79
2022-10-17T03:54:06.015Z,61.84
2022-10-17T03:56:34.741Z,61.67
2022-10-17T03:59:14.022Z,61.80
2022-10-17T04:01:44.320Z,61.70
2022-10-17T04:04:14.458Z,61.79
2022-10-17T04:06:43.220Z,61.73
2022-10-17T04:09:13.996Z,61.91
2022-10-17T04:11:54.013Z,61.47
2022-10-17T04:14:23.594Z,61.64
2022-10-17T04:16:53.460Z,61.43
2022-10-17T04:19:22.938Z,61.43
2022-10-17T04:21:51.983Z,61.75
2022-10-17T04:24:22.729Z,61.45
2022-10-17T04:26:51.933Z,61.57
2022-10-17T04:29:22.136Z,61.51
2022-10-17T04:31:53.522Z,61.50
2022-10-17T04:34:29.075Z,61.47
2022-10-17T04:36:57.516Z,61.50
2022-10-17T04:39:27.392Z,61.18
2022-10-17T04:41:57.152Z,61.52
2022-10-17T04:44:25.606Z,61.54
2022-10-17T04:46:54.548Z,61.58
2022-10-17T04:49:24.275Z,61.39
2022-10-17T04:51:55.958Z,61.54
2022-10-17T04:54:33.998Z,61.17
2022-10-17T04:57:09.751Z,61.20
2022-10-17T04:59:38.540Z,61.53
2022-10-17T05:02:19.064Z,61.30
2022-10-17T05:04:48.295Z,61.42
2022-10-17T05:07:17.673Z,61.51
2022-10-17T05:10:10.841Z,61.39
2022-10-17T05:12:41.168Z,61.48
2022-10-17T05:15:10.657Z,61.20
2022-10-17T05:17:39.170Z,61.35
2022-10-17T05:20:09.520Z,61.57
2022-10-17T05:22:41.166Z,61.17
2022-10-17T05:25:12.997Z,61.23
2022-10-17T05:27:41.590Z,61.32
2022-10-17T05:30:10.925Z,61.34
2022-10-17T05:32:40.797Z,61.60
2022-10-17T05:35:10.144Z,61.25
2022-10-17T05:37:39.970Z,61.05
2022-10-17T05:40:09.732Z,61.10
2022-10-17T05:45:13.446Z,61.08
2022-10-17T05:47:42.545Z,61.32
2022-10-17T05:50:11.591Z,61.09
2022-10-17T05:52:59.119Z,61.16
2022-10-17T05:55:27.546Z,61.07
2022-10-17T05:57:58.451Z,61.15
2022-10-17T06:00:30.329Z,60.96
2022-10-17T06:03:00.178Z,61.04
2022-10-17T06:05:28.665Z,61.14
2022-10-17T06:08:01.031Z,61.28
2022-10-17T06:10:32.548Z,61.18
2022-10-17T06:13:03.048Z,60.87
2022-10-17T06:15:31.527Z,60.98
2022-10-17T06:18:04.683Z,61.03
2022-10-17T06:20:33.841Z,61.13
2022-10-17T06:23:03.210Z,61.32
2022-10-17T06:26:00.120Z,61.03
2022-10-17T06:28:30.311Z,60.96
2022-10-17T06:30:59.567Z,60.87
2022-10-17T06:33:28.341Z,60.98
2022-10-17T06:35:57.509Z,61.05
2022-10-17T06:38:27.768Z,61.07
2022-10-17T06:41:04.923Z,60.87
2022-10-17T06:43:34.856Z,61.20
2022-10-17T06:46:29.821Z,60.98
2022-10-17T06:49:04.634Z,60.86
2022-10-17T06:52:05.528Z,60.74
2022-10-17T06:54:43.242Z,61.04
2022-10-17T06:57:30.508Z,60.89
2022-10-17T07:00:19.519Z,61.11
2022-10-17T07:02:52.789Z,60.79
2022-10-17T07:05:22.184Z,61.10
2022-10-17T07:07:52.023Z,60.79
2022-10-17T07:10:20.834Z,60.80
2022-10-17T07:12:49.367Z,60.66
2022-10-17T07:15:19.248Z,60.58
2022-10-17T07:17:50.281Z,60.79
2022-10-17T07:20:19.752Z,60.71
2022-10-17T07:22:48.186Z,60.72
2022-10-17T07:25:17.194Z,60.57
2022-10-17T07:27:51.232Z,60.81
2022-10-17T07:30:22.218Z,60.89
2022-10-17T07:33:53.366Z,60.91
2022-10-17T07:36:22.517Z,60.81
2022-10-17T07:38:51.616Z,60.89
2022-10-17T07:41:21.957Z,61.04
2022-10-17T07:43:51.805Z,61.01
2022-10-17T07:46:24.928Z,61.06
2022-10-17T07:48:54.695Z,60.90
2022-10-17T07:51:23.572Z,60.73
2022-10-17T07:53:52.697Z,61.11
2022-10-17T07:56:24.746Z,61.15
2022-10-17T07:58:54.144Z,61.07
2022-10-17T08:01:22.507Z,60.86
2022-10-17T08:03:50.796Z,60.84
2022-10-17T08:06:20.605Z,61.02
2022-10-17T08:08:49.154Z,60.79
2022-10-17T08:11:17.875Z,60.78
2022-10-17T08:13:46.413Z,60.91
2022-10-17T08:16:14.762Z,60.75
2022-10-17T08:18:43.921Z,61.03
2022-10-17T08:21:14.045Z,60.65
2022-10-17T08:23:43.785Z,60.81
2022-10-17T08:26:13.522Z,60.89
2022-10-17T08:28:42.078Z,60.81
2022-10-17T08:31:11.943Z,60.85
2022-10-17T08:33:40.746Z,60.84
2022-10-17T08:36:09.852Z,60.58
2022-10-17T08:38:43.057Z,60.58
2022-10-17T08:41:26.145Z,60.72
2022-10-17T08:44:03.745Z,60.88
2022-10-17T08:46:33.769Z,60.75
2022-10-17T08:49:04.508Z,60.76
2022-10-17T08:51:35.262Z,60.74
2022-10-17T08:54:07.662Z,60.62
2022-10-17T08:56:49.048Z,60.84
2022-10-17T08:59:24.005Z,60.86
2022-10-17T09:02:01.191Z,60.65
2022-10-17T09:04:42.802Z,60.60
2022-10-17T09:07:16.033Z,60.55
2022-10-17T09:09:51.931Z,60.54
2022-10-17T09:12:24.930Z,60.73
2022-10-17T09:15:12.714Z,60.41
2022-10-17T09:17:50.506Z,60.44
2022-10-17T09:20:22.190Z,60.45
2022-10-17T09:22:53.492Z,60.67
2022-10-17T09:25:23.424Z,60.20
2022-10-17T09:27:56.421Z,60.58
2022-10-17T09:30:44.561Z,60.66
2022-10-17T09:33:28.320Z,60.19
2022-10-17T09:36:10.647Z,60.29
2022-10-17T09:38:41.739Z,60.03
2022-10-17T09:41:43.028Z,59.98
2022-10-17T09:44:25.587Z,60.09
2022-10-17T09:47:19.146Z,60.15
2022-10-17T09:49:49.335Z,59.79
2022-10-17T09:52:21.371Z,59.87
2022-10-17T09:54:51.601Z,59.86
2022-10-17T09:57:21.105Z,59.65
2022-10-17T09:59:58.553Z,59.71
2022-10-17T10:02:28.797Z,59.78
2022-10-17T10:05:04.946Z,59.82
2022-10-17T10:07:36.792Z,59.72
2022-10-17T10:10:08.031Z,59.60
2022-10-17T10:12:38.175Z,59.74
2022-10-17T10:15:33.337Z,59.61
2022-10-17T10:18:01.863Z,59.65
2022-10-17T10:20:33.492Z,59.58
2022-10-17T10:23:13.400Z,59.85
2022-10-17T10:25:54.090Z,59.65
2022-10-17T10:28:26.222Z,59.60
2022-10-17T10:30:57.217Z,59.52
2022-10-17T10:33:28.404Z,59.55
2022-10-17T10:35:58.555Z,59.42
2022-10-17T10:38:27.188Z,59.40
2022-10-17T10:40:56.923Z,59.35
2022-10-17T10:43:30.518Z,59.26
2022-10-17T10:46:01.644Z,59.43
2022-10-17T10:48:33.209Z,59.71
2022-10-17T10:51:03.668Z,59.73
2022-10-17T10:53:38.194Z,59.54
2022-10-17T10:56:10.918Z,59.46
2022-10-17T10:58:45.365Z,59.28
2022-10-17T11:01:20.204Z,59.48
2022-10-17T11:03:56.866Z,59.48
2022-10-17T11:06:33.753Z,59.75
2022-10-17T11:09:12.752Z,59.58
2022-10-17T11:11:44.696Z,59.97
2022-10-17T11:14:16.826Z,59.81
2022-10-17T11:16:50.472Z,59.63
2022-10-17T11:19:25.995Z,59.48
2022-10-17T11:22:10.436Z,59.53
2022-10-17T11:24:41.968Z,59.56
2022-10-17T11:27:10.705Z,60.15
2022-10-17T11:29:41.463Z,60.07
2022-10-17T11:32:16.251Z,59.83
2022-10-17T11:34:46.833Z,59.71
2022-10-17T11:37:18.864Z,60.43
2022-10-17T11:39:51.600Z,60.05
2022-10-17T11:42:22.623Z,60.18
2022-10-17T11:44:54.860Z,60.32
2022-10-17T11:47:32.069Z,59.95
2022-10-17T11:52:56.982Z,61.31
2022-10-17T11:55:27.427Z,61.01
2022-10-17T11:58:03.000Z,61.42
2022-10-17T12:00:46.133Z,61.29
2022-10-17T12:03:30.276Z,60.89
2022-10-17T12:06:01.555Z,61.26
2022-10-17T12:08:34.700Z,61.47
2022-10-17T12:11:12.455Z,61.09
2022-10-17T12:13:55.108Z,61.38
2022-10-17T12:19:33.894Z,61.23
2022-10-17T12:22:21.497Z,61.05
2022-10-17T12:25:00.898Z,61.16
2022-10-17T12:27:36.097Z,60.85
2022-10-17T12:30:07.771Z,60.94
2022-10-17T12:33:00.074Z,60.92
2022-10-17T12:35:28.278Z,60.60
2022-10-17T12:38:09.639Z,59.76
2022-10-17T12:41:08.087Z,59.46
2022-10-17T12:43:46.778Z,59.84
2022-10-17T12:46:51.030Z,59.83
2022-10-17T12:49:47.846Z,59.71
2022-10-17T12:52:25.858Z,59.86
2022-10-17T12:55:11.483Z,59.95
2022-10-17T12:57:45.586Z,59.73
2022-10-17T13:00:19.192Z,59.66
2022-10-17T13:02:49.050Z,59.53
2022-10-17T13:05:22.366Z,60.02
2022-10-17T13:07:52.762Z,59.70
2022-10-17T13:10:24.060Z,59.60
2022-10-17T13:13:04.617Z,59.62
2022-10-17T13:15:33.295Z,59.84
2022-10-17T13:18:02.538Z,59.84
2022-10-17T13:20:32.756Z,59.96
2022-10-17T13:23:02.566Z,59.82
2022-10-17T13:25:30.967Z,59.86
2022-10-17T13:28:09.675Z,59.78
2022-10-17T13:30:38.435Z,59.83
2022-10-17T13:33:26.040Z,59.71
2022-10-17T13:36:01.663Z,59.86
2022-10-17T13:38:35.631Z,59.33
2022-10-17T13:41:34.355Z,59.67
2022-10-17T13:44:02.746Z,59.72
2022-10-17T13:46:38.913Z,59.64
2022-10-17T13:49:14.244Z,59.24
2022-10-17T13:51:44.907Z,59.67
2022-10-17T13:54:33.009Z,59.79
2022-10-17T13:57:02.392Z,59.67
2022-10-17T13:59:35.454Z,59.72
2022-10-17T14:02:05.884Z,59.77
2022-10-17T14:04:56.636Z,59.79
2022-10-17T14:07:34.335Z,59.82
2022-10-17T14:10:20.668Z,59.76
2022-10-17T14:12:51.030Z,59.82
2022-10-17T14:15:19.978Z,59.77
2022-10-17T14:17:55.408Z,59.80
2022-10-17T14:20:57.541Z,59.91
2022-10-17T14:23:30.681Z,59.87
2022-10-17T14:26:10.350Z,59.71
2022-10-17T14:28:39.596Z,60.30
2022-10-17T14:31:21.106Z,59.68
2022-10-17T14:33:51.228Z,59.76
2022-10-17T14:36:20.799Z,59.90
2022-10-17T14:38:52.301Z,59.67
2022-10-17T14:44:21.735Z,59.75
2022-10-17T14:46:54.280Z,59.70
2022-10-17T14:49:27.651Z,59.96
2022-10-17T14:52:28.831Z,59.52
2022-10-17T14:54:58.943Z,59.92
2022-10-17T14:57:40.851Z,59.75
2022-10-17T15:00:14.319Z,59.88
2022-10-17T15:02:42.821Z,59.80
2022-10-17T15:05:13.417Z,59.74
2022-10-17T15:07:42.689Z,59.65
2022-10-17T15:10:25.602Z,59.65
2022-10-17T15:12:59.281Z,59.66
2022-10-17T15:15:39.335Z,59.72
2022-10-17T15:18:08.384Z,59.68
2022-10-17T15:20:36.914Z,59.74
2022-10-17T15:23:05.593Z,59.82
2022-10-17T15:25:34.511Z,59.72
2022-10-17T15:28:04.216Z,59.95
2022-10-17T15:30:37.104Z,59.82
2022-10-17T15:33:05.914Z,60.09
2022-10-17T15:35:34.613Z,59.99
2022-10-17T15:38:02.961Z,59.65
2022-10-17T15:40:31.630Z,59.97
2022-10-17T15:43:00.154Z,59.81
2022-10-17T15:45:30.083Z,60.05
2022-10-17T15:48:06.862Z,59.92
2022-10-17T15:50:35.461Z,60.07
2022-10-17T15:53:06.075Z,59.82
2022-10-17T15:55:34.462Z,60.15
2022-10-17T15:58:03.048Z,60.37
2022-10-17T16:00:33.133Z,60.30
2022-10-17T16:03:01.922Z,60.26
2022-10-17T16:05:30.338Z,60.21
2022-10-17T16:07:58.851Z,60.17
2022-10-17T16:10:28.134Z,60.41
2022-10-17T16:12:56.623Z,59.91
2022-10-17T16:15:28.114Z,60.25
2022-10-17T16:18:01.666Z,60.33
2022-10-17T16:20:32.746Z,60.27
2022-10-17T16:23:03.064Z,60.19
2022-10-17T16:25:32.511Z,60.26
2022-10-17T16:28:02.066Z,60.08
2022-10-17T16:30:31.778Z,60.46
2022-10-17T16:33:02.442Z,60.14
2022-10-17T16:35:34.844Z,60.15
2022-10-17T16:38:06.661Z,60.36
2022-10-17T16:40:35.576Z,60.52
2022-10-17T16:43:03.960Z,60.59
2022-10-17T16:45:32.766Z,60.50
2022-10-17T16:48:02.559Z,60.56
2022-10-17T16:50:35.325Z,60.59
2022-10-17T16:53:04.032Z,60.61
2022-10-17T16:55:32.467Z,61.00
2022-10-17T16:58:01.528Z,60.70
2022-10-17T17:00:30.231Z,60.34
2022-10-17T17:02:58.622Z,60.74
2022-10-17T17:05:28.340Z,60.73
2022-10-17T17:07:57.008Z,60.80
2022-10-17T17:10:25.499Z,60.96
2022-10-17T17:12:54.027Z,61.09
2022-10-17T17:15:22.874Z,60.92
2022-10-17T17:17:55.100Z,60.52
2022-10-17T17:20:24.112Z,61.03
2022-10-17T17:22:54.077Z,60.98
2022-10-17T17:25:22.995Z,61.00
2022-10-17T17:27:51.619Z,61.10
2022-10-17T17:30:19.959Z,61.10
2022-10-17T17:32:48.396Z,61.05
2022-10-17T17:35:16.985Z,61.48
2022-10-17T17:37:45.461Z,61.40
2022-10-17T17:40:15.475Z,61.55
2022-10-17T17:42:43.999Z,61.49
2022-10-17T17:45:13.580Z,61.61
2022-10-17T17:47:42.060Z,61.37
2022-10-17T17:50:11.074Z,61.46
2022-10-17T17:52:42.147Z,61.73
2022-10-17T17:55:10.687Z,61.60
2022-10-17T17:57:40.561Z,61.57
2022-10-17T18:00:10.253Z,61.62
2022-10-17T18:02:42.171Z,61.44
2022-10-17T18:05:14.625Z,61.59
2022-10-17T18:07:43.062Z,61.57
2022-10-17T18:12:46.206Z,61.69
2022-10-17T18:15:15.601Z,61.50
2022-10-17T18:17:43.975Z,61.55
2022-10-17T18:20:13.247Z,61.36
2022-10-17T18:22:41.808Z,61.52
2022-10-17T18:25:10.651Z,61.60
2022-10-17T18:27:39.185Z,61.74
2022-10-17T18:30:10.184Z,61.61
2022-10-17T18:32:40.605Z,61.68
2022-10-17T18:35:10.062Z,61.57
2022-10-17T18:37:39.543Z,61.65
2022-10-17T18:40:09.387Z,61.61
2022-10-17T18:42:37.881Z,61.54
2022-10-17T18:45:07.432Z,61.51
2022-10-17T18:47:37.638Z,61.73
2022-10-17T18:50:06.661Z,61.55
2022-10-17T18:52:35.067Z,61.53
2022-10-17T18:55:04.114Z,61.65
2022-10-17T18:57:32.892Z,61.42
2022-10-17T19:00:01.329Z,61.42
2022-10-17T19:02:35.535Z,61.59
2022-10-17T19:05:08.504Z,61.50
2022-10-17T19:07:37.003Z,62.15
2022-10-17T19:10:06.247Z,61.66
2022-10-17T19:12:34.749Z,61.83
2022-10-17T19:15:03.529Z,62.00
2022-10-17T19:17:32.273Z,61.82
2022-10-17T19:20:01.004Z,61.83
2022-10-17T19:22:32.907Z,61.56
2022-10-17T19:25:01.292Z,61.62
2022-10-17T19:27:30.117Z,61.94
2022-10-17T19:29:59.019Z,61.72
2022-10-17T19:32:27.446Z,61.82
2022-10-17T19:34:56.123Z,61.73
2022-10-17T19:37:24.666Z,61.69
2022-10-17T19:39:54.648Z,61.76
2022-10-17T19:42:23.129Z,62.17
2022-10-17T19:44:51.518Z,61.67
2022-10-17T19:47:19.839Z,61.58
2022-10-17T19:49:50.102Z,61.72
2022-10-17T19:52:19.062Z,61.46
2022-10-17T19:54:47.745Z,61.71
2022-10-17T19:57:17.334Z,61.61
2022-10-17T19:59:45.740Z,61.55
2022-10-17T20:02:14.622Z,61.79
2022-10-17T20:04:54.342Z,61.55
2022-10-17T20:07:31.935Z,61.61
2022-10-17T20:10:00.528Z,61.54
2022-10-17T20:12:30.666Z,61.45
2022-10-17T20:15:00.652Z,61.61
2022-10-17T20:17:29.237Z,61.63
2022-10-17T20:19:58.141Z,61.62
2022-10-17T20:22:26.648Z,61.52
2022-10-17T20:24:55.181Z,61.48
2022-10-17T20:27:27.577Z,61.54
2022-10-17T20:30:01.678Z,61.41
2022-10-17T20:32:32.041Z,61.22
2022-10-17T20:35:00.759Z,61.68
2022-10-17T20:37:29.702Z,61.80
2022-10-17T20:40:22.661Z,61.63
2022-10-17T20:42:47.508Z,61.61
2022-10-17T20:45:17.972Z,61.49
2022-10-17T20:47:53.977Z,61.66
2022-10-17T20:50:22.945Z,61.70
2022-10-17T20:53:01.041Z,61.64
2022-10-17T20:55:40.473Z,61.60
2022-10-17T20:58:10.577Z,61.59
2022-10-17T21:00:40.816Z,61.41
2022-10-17T21:03:10.130Z,61.54
2022-10-17T21:05:42.003Z,61.46
2022-10-17T21:08:10.708Z,61.48
2022-10-17T21:10:39.655Z,61.61
2022-10-17T21:13:08.110Z,61.49
2022-10-17T21:15:37.583Z,61.52
2022-10-17T21:18:07.338Z,61.54
2022-10-17T21:20:35.941Z,61.51
2022-10-17T21:23:04.608Z,61.42
2022-10-17T21:25:33.476Z,61.41
2022-10-17T21:28:02.493Z,61.50
2022-10-17T21:30:31.384Z,61.65
2022-10-17T21:32:59.897Z,61.48
2022-10-17T21:35:29.932Z,61.41
2022-10-17T21:37:58.411Z,61.26
2022-10-17T21:40:27.211Z,61.50
2022-10-17T21:42:55.891Z,61.34
2022-10-17T21:45:25.971Z,61.50
2022-10-17T21:48:12.172Z,61.33
2022-10-17T21:50:42.919Z,61.44
2022-10-17T21:53:11.709Z,61.33
2022-10-17T21:55:40.303Z,61.16
2022-10-17T21:58:11.258Z,61.39
2022-10-17T22:00:40.719Z,61.33
2022-10-17T22:03:09.636Z,61.16
2022-10-17T22:05:38.535Z,61.33
2022-10-17T22:08:08.740Z,61.33
2022-10-17T22:10:38.092Z,61.05
2022-10-17T22:13:06.846Z,61.06
2022-10-17T22:15:35.409Z,61.26
2022-10-17T22:18:03.887Z,61.30
2022-10-17T22:20:34.653Z,61.22
2022-10-17T22:23:03.309Z,61.25
2022-10-17T22:25:33.247Z,61.19
2022-10-17T22:28:01.939Z,61.35
2022-10-17T22:30:30.999Z,61.23
2022-10-17T22:32:59.880Z,61.00
2022-10-17T22:35:28.800Z,61.13
2022-10-17T22:37:57.611Z,61.22
2022-10-17T22:40:26.275Z,61.20
2022-10-17T22:42:56.169Z,61.39
2022-10-17T22:45:24.877Z,61.20
2022-10-17T22:47:54.372Z,61.23
2022-10-17T22:50:23.353Z,61.13
2022-10-17T22:52:52.095Z,61.25
2022-10-17T22:55:20.636Z,61.20
2022-10-17T22:57:49.208Z,61.26
2022-10-17T23:00:19.410Z,61.22
2022-10-17T23:02:48.026Z,61.32
2022-10-17T23:05:16.706Z,61.58
2022-10-17T23:07:45.444Z,61.05
2022-10-17T23:10:13.990Z,61.15
2022-10-17T23:12:42.540Z,61.13
2022-10-17T23:15:11.585Z,61.47
2022-10-17T23:17:44.141Z,60.92
2022-10-17T23:20:12.717Z,61.35
2022-10-17T23:22:41.056Z,61.23
2022-10-17T23:25:09.804Z,61.22
2022-10-17T23:27:38.173Z,61.40
2022-10-17T23:30:07.662Z,61.21
2022-10-17T23:32:36.166Z,61.48
2022-10-17T23:35:06.480Z,61.15
2022-10-17T23:37:35.217Z,61.23
2022-10-17T23:40:04.851Z,61.00
2022-10-17T23:42:33.577Z,61.27
2022-10-17T23:45:02.058Z,61.27
2022-10-17T23:47:31.311Z,61.16
2022-10-17T23:50:00.082Z,60.99
2022-10-17T23:52:29.828Z,60.87
2022-10-17T23:54:58.142Z,61.05
2022-10-17T23:57:26.516Z,61.19
2022-10-17T23:59:55.503Z,61.31
